Time;durP1;ratioP1;P1;durP2;ratioP2;P2;SDS_P1;SDS_P2;PMS_P1;PMS_P2;Temp;Humidity;BMP_temperature;BMP_pressure;BME280_temperature;BME280_humidity;BME280_pressure;Samples;Min_cycle;Max_cycle;Signal;HPM_P1;HPM_P2
2023/04/03 00:00:54;;;;;;;7.00;4.00;;;;;;;4.11;100.00;98603.03;4485611;31;20171;-67
2023/04/03 00:03:21;;;;;;;8.30;4.15;;;;;;;4.17;100.00;98587.88;4485038;31;20139;-67
2023/04/03 00:05:49;;;;;;;7.68;4.15;;;;;;;4.06;100.00;98591.19;4485486;32;20080;-67
2023/04/03 00:08:16;;;;;;;7.55;4.18;;;;;;;4.09;100.00;98590.16;4485184;31;20092;-67
2023/04/03 00:10:44;;;;;;;5.80;3.30;;;;;;;4.02;100.00;98599.28;4485127;32;20097;-67
2023/04/03 00:13:11;;;;;;;6.05;3.72;;;;;;;4.04;100.00;98600.84;4485054;31;20503;-67
2023/04/03 00:15:39;;;;;;;8.02;3.97;;;;;;;3.98;100.00;98592.63;4485204;31;20163;-67
2023/04/03 00:18:07;;;;;;;6.10;3.90;;;;;;;3.93;100.00;98598.09;4485003;32;20100;-67
2023/04/03 00:20:34;;;;;;;9.20;4.20;;;;;;;3.94;100.00;98598.91;4485222;32;20096;-67
2023/04/03 00:23:03;;;;;;;5.55;3.40;;;;;;;3.94;100.00;98599.78;4485000;31;20097;-67
2023/04/03 00:25:30;;;;;;;7.43;3.72;;;;;;;3.96;100.00;98603.09;4485129;32;20139;-67
2023/04/03 00:27:58;;;;;;;6.55;3.95;;;;;;;3.97;100.00;98607.34;4484931;31;20096;-67
2023/04/03 00:30:25;;;;;;;7.15;4.12;;;;;;;3.91;100.00;98615.53;4483701;32;20117;-66
2023/04/03 00:32:53;;;;;;;7.50;3.72;;;;;;;3.88;100.00;98607.94;4484967;31;20127;-66
2023/04/03 00:35:21;;;;;;;6.07;3.53;;;;;;;3.94;100.00;98602.34;4484992;31;20111;-67
2023/04/03 00:37:51;;;;;;;5.35;3.42;;;;;;;3.87;100.00;98601.09;4485074;31;20563;-66
2023/04/03 00:40:19;;;;;;;6.85;3.70;;;;;;;3.89;100.00;98602.66;4484939;31;20100;-67
2023/04/03 00:42:48;;;;;;;6.10;3.58;;;;;;;3.92;100.00;98599.03;4485225;31;20123;-67
2023/04/03 00:45:18;;;;;;;6.40;3.25;;;;;;;3.96;100.00;98591.91;4484848;31;20491;-67
2023/04/03 00:47:45;;;;;;;9.52;3.90;;;;;;;3.94;100.00;98614.47;4485060;31;20153;-67
2023/04/03 00:50:12;;;;;;;5.70;3.12;;;;;;;3.95;100.00;98587.62;4483550;32;20092;-67
2023/04/03 00:52:40;;;;;;;5.70;3.15;;;;;;;3.92;100.00;98606.78;4484756;31;20123;-67
2023/04/03 00:55:08;;;;;;;6.35;3.55;;;;;;;3.93;100.00;98599.88;4484859;31;20156;-67
2023/04/03 00:57:36;;;;;;;7.72;3.62;;;;;;;3.88;100.00;98602.75;4483517;32;20136;-67
2023/04/03 01:00:09;;;;;;;8.70;2.28;;;;;;;3.96;100.00;98604.84;4483460;32;20081;-67
2023/04/03 01:02:37;;;;;;;8.13;3.83;;;;;;;3.92;100.00;98596.44;4484966;31;20170;-67
2023/04/03 01:05:06;;;;;;;5.40;2.95;;;;;;;3.95;100.00;98606.63;4484559;32;20164;-67
2023/04/03 01:07:36;;;;;;;5.55;3.25;;;;;;;3.87;100.00;98608.84;4484745;31;20114;-67
2023/04/03 01:10:08;;;;;;;4.70;3.00;;;;;;;3.86;100.00;98602.84;4484570;31;20190;-67
2023/04/03 01:12:38;;;;;;;5.20;3.08;;;;;;;3.89;100.00;98607.00;4484546;32;20119;-67
2023/04/03 01:15:07;;;;;;;5.12;2.95;;;;;;;3.87;100.00;98601.09;4484564;31;20092;-67
2023/04/03 01:17:39;;;;;;;5.40;3.08;;;;;;;3.87;100.00;98609.69;4484598;31;20108;-67
2023/04/03 01:20:28;;;;;;;4.97;2.78;;;;;;;3.81;100.00;98612.66;4484482;31;20103;-67
2023/04/03 01:23:18;;;;;;;3.65;2.70;;;;;;;3.84;100.00;98614.25;4484729;32;20120;-67
2023/04/03 01:25:53;;;;;;;6.28;2.78;;;;;;;3.79;100.00;98611.94;4483454;32;20446;-67
2023/04/03 01:28:24;;;;;;;3.00;2.47;;;;;;;3.77;100.00;98605.19;4484835;31;20464;-67
2023/04/03 01:31:21;;;;;;;3.67;2.30;;;;;;;3.73;100.00;98610.56;4484408;31;20092;-66
2023/04/03 01:33:48;;;;;;;4.18;2.33;;;;;;;3.69;100.00;98610.88;4483282;32;20124;-67
2023/04/03 01:36:20;;;;;;;4.40;2.97;;;;;;;3.72;100.00;98606.34;4484637;31;20481;-67
2023/04/03 01:38:48;;;;;;;4.28;2.62;;;;;;;3.69;100.00;98601.34;4484571;31;20176;-67
2023/04/03 01:41:15;;;;;;;5.25;2.55;;;;;;;3.68;100.00;98610.03;4484398;32;20119;-67
2023/04/03 01:43:44;;;;;;;4.50;2.60;;;;;;;3.67;100.00;98608.38;4484702;31;20123;-67
2023/04/03 01:46:11;;;;;;;5.70;2.10;;;;;;;3.66;100.00;98608.47;4482935;32;20104;-67
2023/04/03 01:48:38;;;;;;;4.65;2.40;;;;;;;3.63;100.00;98621.63;4484308;32;20124;-67
2023/04/03 01:51:06;;;;;;;4.40;2.47;;;;;;;3.62;100.00;98615.63;4484066;31;20088;-67
2023/04/03 01:53:33;;;;;;;5.70;2.87;;;;;;;3.59;100.00;98621.00;4482860;32;20174;-67
2023/04/03 01:56:01;;;;;;;5.55;2.97;;;;;;;3.58;100.00;98621.09;4484428;31;20131;-67
2023/04/03 01:58:30;;;;;;;5.00;2.60;;;;;;;3.48;100.00;98628.59;4484407;31;20104;-67
2023/04/03 02:00:58;;;;;;;4.50;2.55;;;;;;;3.53;100.00;98621.37;4484147;32;20088;-66
2023/04/03 02:03:26;;;;;;;6.35;2.90;;;;;;;3.43;100.00;98628.87;4484144;31;20113;-67
2023/04/03 02:05:53;;;;;;;6.70;2.60;;;;;;;3.48;100.00;98628.59;4484180;31;20096;-67
2023/04/03 02:08:20;;;;;;;5.60;2.85;;;;;;;3.47;100.00;98616.59;4484025;31;20118;-67
2023/04/03 02:10:48;;;;;;;4.28;2.37;;;;;;;3.43;100.00;98615.94;4483629;31;20085;-67
2023/04/03 02:13:17;;;;;;;3.92;2.45;;;;;;;3.36;100.00;98628.44;4484056;31;20096;-67
2023/04/03 02:15:45;;;;;;;4.18;2.60;;;;;;;3.33;100.00;98622.59;4483780;31;20092;-67
2023/04/03 02:18:15;;;;;;;5.05;2.80;;;;;;;3.26;100.00;98626.50;4484986;31;20086;-67
2023/04/03 02:20:42;;;;;;;4.37;2.55;;;;;;;3.23;100.00;98627.53;4485745;31;20164;-66
2023/04/03 02:23:10;;;;;;;6.25;3.22;;;;;;;3.30;100.00;98641.75;4486247;31;20088;-67
2023/04/03 02:25:38;;;;;;;5.87;3.45;;;;;;;3.23;100.00;98630.13;4485912;32;20109;-67
2023/04/03 02:28:05;;;;;;;6.85;3.08;;;;;;;3.27;100.00;98622.97;4485996;31;20092;-67
2023/04/03 02:30:33;;;;;;;6.22;2.92;;;;;;;3.18;100.00;98629.56;4486100;31;20096;-67
2023/04/03 02:33:00;;;;;;;6.05;3.12;;;;;;;3.19;100.00;98631.22;4485787;31;20505;-67
2023/04/03 02:35:27;;;;;;;4.05;2.67;;;;;;;3.15;100.00;98627.16;4486096;31;20096;-67
2023/04/03 02:37:55;;;;;;;7.53;3.45;;;;;;;3.17;100.00;98635.66;4486183;31;20114;-67
2023/04/03 02:40:23;;;;;;;6.03;3.05;;;;;;;3.11;100.00;98639.47;4485981;31;20412;-67
2023/04/03 02:42:50;;;;;;;5.87;3.33;;;;;;;2.97;100.00;98642.88;4486005;31;20161;-67
2023/04/03 02:45:18;;;;;;;6.40;3.60;;;;;;;3.04;100.00;98647.69;4486067;31;20143;-67
2023/04/03 02:47:45;;;;;;;5.90;2.65;;;;;;;3.04;100.00;98645.09;4485980;32;20092;-67
2023/04/03 02:50:12;;;;;;;6.70;3.67;;;;;;;3.02;100.00;98642.59;4485822;31;20085;-67
2023/04/03 02:52:40;;;;;;;4.35;2.30;;;;;;;3.01;100.00;98651.28;4485673;31;20143;-67
2023/04/03 02:55:14;;;;;;;4.75;2.75;;;;;;;3.02;100.00;98643.44;4485936;31;20459;-67
2023/04/03 02:57:42;;;;;;;6.12;3.33;;;;;;;2.99;100.00;98643.63;4486081;31;20144;-67
2023/04/03 03:00:09;;;;;;;4.82;2.95;;;;;;;2.93;100.00;98659.50;4485924;31;20149;-67
2023/04/03 03:02:36;;;;;;;7.28;3.87;;;;;;;2.98;100.00;98656.66;4485826;31;20119;-67
2023/04/03 03:05:04;;;;;;;6.65;3.50;;;;;;;3.01;100.00;98651.28;4485595;31;20100;-67
2023/04/03 03:07:32;;;;;;;6.40;3.40;;;;;;;3.06;100.00;98653.59;4485559;31;20096;-67
2023/04/03 03:09:59;;;;;;;8.00;3.85;;;;;;;3.04;100.00;98655.44;4485677;31;20092;-67
2023/04/03 03:12:26;;;;;;;6.90;3.95;;;;;;;2.93;100.00;98651.75;4485589;31;20476;-67
2023/04/03 03:14:55;;;;;;;5.57;3.05;;;;;;;2.91;100.00;98650.19;4485569;31;20169;-67
2023/04/03 03:17:22;;;;;;;5.37;2.87;;;;;;;2.90;100.00;98654.50;4485413;31;20557;-67
2023/04/03 03:19:49;;;;;;;4.78;3.15;;;;;;;2.84;100.00;98641.94;4485602;31;20105;-67
2023/04/03 03:22:18;;;;;;;8.32;2.78;;;;;;;2.84;100.00;98647.13;4485143;31;20089;-66
2023/04/03 03:24:45;;;;;;;5.40;3.47;;;;;;;2.83;100.00;98648.03;4485623;31;20123;-67
2023/04/03 03:27:12;;;;;;;8.20;3.65;;;;;;;2.76;100.00;98647.56;4485388;31;20108;-67
2023/04/03 03:29:39;;;;;;;6.18;3.17;;;;;;;2.76;100.00;98639.00;4484805;32;20100;-67
2023/04/03 03:32:07;;;;;;;4.32;2.33;;;;;;;2.68;100.00;98642.03;4485697;31;20084;-67
2023/04/03 03:34:34;;;;;;;8.35;3.40;;;;;;;2.71;100.00;98628.94;4485290;31;20100;-67
2023/04/03 03:37:01;;;;;;;7.75;3.75;;;;;;;2.66;100.00;98626.63;4485314;32;20394;-66
2023/04/03 03:39:28;;;;;;;5.65;3.37;;;;;;;2.65;100.00;98632.69;4485732;31;20084;-67
2023/04/03 03:41:56;;;;;;;5.15;3.10;;;;;;;2.60;100.00;98629.53;4484167;32;20200;-67
2023/04/03 03:44:24;;;;;;;4.37;2.37;;;;;;;2.53;100.00;98630.84;4485460;31;20437;-67
2023/04/03 03:46:52;;;;;;;5.03;3.10;;;;;;;2.57;100.00;98636.66;4485617;31;20104;-67
2023/04/03 03:49:19;;;;;;;6.82;3.65;;;;;;;2.53;100.00;98630.84;4485635;32;20141;-67
2023/04/03 03:51:47;;;;;;;4.37;2.92;;;;;;;2.51;100.00;98626.66;4485077;31;20446;-67
2023/04/03 03:54:14;;;;;;;6.30;2.17;;;;;;;2.38;100.00;98629.16;4485234;31;20084;-67
2023/04/03 03:56:41;;;;;;;6.05;2.80;;;;;;;2.40;100.00;98622.13;4485549;31;20080;-67
2023/04/03 03:59:11;;;;;;;6.78;3.22;;;;;;;2.37;100.00;98630.06;4485543;31;20119;-67
2023/04/03 04:01:39;;;;;;;5.20;2.90;;;;;;;2.27;100.00;98632.31;4485290;31;20088;-67
2023/04/03 04:04:07;;;;;;;4.78;2.95;;;;;;;2.19;100.00;98622.44;4485259;31;20084;-67
2023/04/03 04:06:35;;;;;;;5.85;3.12;;;;;;;2.18;100.00;98636.28;4484233;32;20175;-67
2023/04/03 04:09:03;;;;;;;5.05;2.85;;;;;;;2.11;100.00;98620.28;4481121;31;20587;-67
2023/04/03 04:11:32;;;;;;;3.05;1.90;;;;;;;2.14;100.00;98627.03;4479945;31;20135;-67
2023/04/03 04:13:59;;;;;;;6.78;2.85;;;;;;;2.18;100.00;98628.53;4479708;32;20172;-67
2023/04/03 04:16:27;;;;;;;4.80;2.78;;;;;;;2.17;100.00;98629.44;4484487;32;20520;-66
2023/04/03 04:18:56;;;;;;;7.10;3.25;;;;;;;2.19;100.00;98631.94;4483198;31;20115;-66
2023/04/03 04:21:23;;;;;;;6.32;2.95;;;;;;;2.16;100.00;98635.53;4482601;32;20104;-66
2023/04/03 04:23:51;;;;;;;6.85;3.67;;;;;;;2.15;100.00;98633.03;4483521;31;20516;-66
2023/04/03 04:26:18;;;;;;;8.20;3.00;;;;;;;2.15;100.00;98638.19;4484543;32;20453;-66
2023/04/03 04:28:46;;;;;;;4.25;2.70;;;;;;;2.09;100.00;98637.66;4483374;31;20116;-66
2023/04/03 04:31:13;;;;;;;4.22;2.60;;;;;;;2.00;100.00;98645.06;4483171;32;20096;-66
2023/04/03 04:33:41;;;;;;;4.57;2.67;;;;;;;2.09;100.00;98650.56;4479990;32;20118;-66
2023/04/03 04:36:09;;;;;;;4.53;2.60;;;;;;;2.08;100.00;98640.31;4484623;32;20121;-66
2023/04/03 04:38:37;;;;;;;3.50;2.17;;;;;;;2.11;100.00;98635.78;4485440;31;20347;-66
2023/04/03 04:41:04;;;;;;;5.72;3.62;;;;;;;2.15;100.00;98649.41;4484868;31;20122;-66
2023/04/03 04:43:32;;;;;;;5.40;2.92;;;;;;;2.06;100.00;98657.63;4480710;31;20157;-66
2023/04/03 04:46:11;;;;;;;7.00;3.55;;;;;;;2.11;100.00;98656.47;4484041;32;20192;-65
2023/04/03 04:48:40;;;;;;;7.32;2.53;;;;;;;2.08;100.00;98646.31;4483835;31;20092;-66
2023/04/03 04:51:07;;;;;;;4.75;3.00;;;;;;;2.09;100.00;98647.97;4481547;31;20104;-66
2023/04/03 04:53:35;;;;;;;4.82;2.65;;;;;;;2.08;100.00;98641.12;4482798;31;20108;-66
2023/04/03 04:56:03;;;;;;;5.35;2.53;;;;;;;2.07;100.00;98654.16;4482096;31;20100;-66
2023/04/03 04:58:30;;;;;;;5.95;2.87;;;;;;;2.02;100.00;98651.81;4480934;32;20121;-66
2023/04/03 05:01:02;;;;;;;6.20;2.90;;;;;;;1.98;100.00;98649.50;4485188;31;20089;-66
2023/04/03 05:03:29;;;;;;;5.15;2.95;;;;;;;1.96;100.00;98654.75;4484660;31;20115;-66
2023/04/03 05:05:57;;;;;;;5.30;2.28;;;;;;;1.91;100.00;98665.34;4480691;31;20103;-66
2023/04/03 05:08:25;;;;;;;7.37;3.25;;;;;;;1.98;100.00;98654.66;4475281;32;20139;-64
2023/04/03 05:10:53;;;;;;;3.65;2.37;;;;;;;1.97;100.00;98664.16;4480129;32;20139;-64
2023/04/03 05:13:23;;;;;;;5.18;3.15;;;;;;;2.00;100.00;98664.00;4479712;31;20448;-65
2023/04/03 05:15:50;;;;;;;3.30;2.47;;;;;;;2.01;100.00;98667.41;4481004;31;20092;-66
2023/04/03 05:18:18;;;;;;;3.65;2.37;;;;;;;2.02;100.00;98672.50;4478433;31;20162;-65
2023/04/03 05:20:48;;;;;;;6.03;2.83;;;;;;;1.92;100.00;98667.00;4480299;32;20165;-66
2023/04/03 05:23:17;;;;;;;5.32;2.15;;;;;;;2.16;100.00;98673.47;4476991;32;20156;-67
2023/04/03 05:25:46;;;;;;;4.15;2.22;;;;;;;2.19;100.00;98662.97;4472500;31;20100;-67
2023/04/03 05:28:14;;;;;;;5.78;3.12;;;;;;;2.14;100.00;98673.56;4474296;32;20119;-68
2023/04/03 05:30:41;;;;;;;5.95;2.87;;;;;;;2.23;100.00;98677.38;4476622;31;20538;-67
2023/04/03 05:33:09;;;;;;;8.15;2.97;;;;;;;2.00;100.00;98683.81;4478529;31;20171;-69
2023/04/03 05:35:41;;;;;;;5.53;2.72;;;;;;;2.09;100.00;98672.97;4482337;31;20124;-69
2023/04/03 05:38:09;;;;;;;4.15;2.78;;;;;;;2.05;100.00;98681.84;4481568;32;20159;-68
2023/04/03 05:40:37;;;;;;;6.40;3.40;;;;;;;1.97;100.00;98678.81;4481149;32;20132;-68
2023/04/03 05:43:05;;;;;;;5.53;2.55;;;;;;;2.07;100.00;98691.13;4479539;31;20108;-68
2023/04/03 05:45:34;;;;;;;5.95;2.97;;;;;;;2.04;100.00;98685.31;4476809;32;20464;-68
2023/04/03 05:48:01;;;;;;;6.40;3.60;;;;;;;2.02;100.00;98688.00;4480250;31;20698;-65
2023/04/03 05:50:30;;;;;;;5.43;3.05;;;;;;;2.00;100.00;98694.16;4482809;31;20108;-65
2023/04/03 05:52:58;;;;;;;5.40;3.05;;;;;;;1.93;100.00;98691.09;4482235;31;20131;-66
2023/04/03 05:55:26;;;;;;;3.65;2.40;;;;;;;1.92;100.00;98703.19;4480108;31;20107;-66
2023/04/03 05:57:53;;;;;;;5.30;2.67;;;;;;;2.01;100.00;98688.91;4476970;31;20100;-69
2023/04/03 06:00:22;;;;;;;4.82;2.67;;;;;;;2.15;100.00;98683.00;4464446;32;20143;-66
2023/04/03 06:02:51;;;;;;;5.03;2.50;;;;;;;2.25;100.00;98686.69;4472216;32;20092;-67
2023/04/03 06:05:20;;;;;;;4.57;2.33;;;;;;;2.42;100.00;98697.84;4470307;32;20646;-66
2023/04/03 06:07:49;;;;;;;3.70;2.28;;;;;;;2.52;100.00;98680.06;4467983;31;20084;-67
2023/04/03 06:10:17;;;;;;;6.18;3.62;;;;;;;2.75;100.00;98696.81;4469918;31;20164;-66
2023/04/03 06:12:45;;;;;;;5.65;2.85;;;;;;;2.88;100.00;98692.59;4469261;32;20092;-68
2023/04/03 06:15:12;;;;;;;4.78;2.58;;;;;;;2.85;100.00;98687.59;4467612;31;20085;-67
2023/04/03 06:17:40;;;;;;;6.90;2.72;;;;;;;3.03;100.00;98690.84;4471272;32;20118;-67
2023/04/03 06:20:07;;;;;;;3.30;2.37;;;;;;;3.08;100.00;98699.16;4470392;32;20097;-66
2023/04/03 06:22:35;;;;;;;5.93;3.30;;;;;;;3.27;100.00;98698.06;4472078;31;20112;-66
2023/04/03 06:25:04;;;;;;;5.55;2.78;;;;;;;3.18;100.00;98705.47;4470481;32;20117;-67
2023/04/03 06:27:31;;;;;;;4.05;2.30;;;;;;;3.29;100.00;98696.22;4471787;31;20114;-66
2023/04/03 06:29:59;;;;;;;3.67;2.85;;;;;;;3.38;100.00;98706.84;4469726;31;20447;-67
2023/04/03 06:32:26;;;;;;;6.25;2.83;;;;;;;3.46;100.00;98701.19;4469085;32;20580;-69
2023/04/03 06:34:53;;;;;;;3.78;2.45;;;;;;;3.51;100.00;98701.75;4470455;31;20100;-66
2023/04/03 06:37:22;;;;;;;7.30;2.62;;;;;;;3.58;100.00;98712.56;4475217;31;20179;-69
2023/04/03 06:39:50;;;;;;;4.87;2.95;;;;;;;3.70;100.00;98706.63;4473687;31;20132;-70
2023/04/03 06:42:17;;;;;;;3.60;2.37;;;;;;;3.61;100.00;98707.19;4473367;31;20092;-69
2023/04/03 06:44:45;;;;;;;6.93;3.10;;;;;;;3.69;100.00;98710.16;4473774;32;20127;-68
2023/04/03 06:47:13;;;;;;;5.65;2.97;;;;;;;3.74;100.00;98720.25;4471837;31;20114;-67
2023/04/03 06:49:41;;;;;;;4.53;2.83;;;;;;;3.91;100.00;98726.97;4475473;31;20126;-66
2023/04/03 06:52:09;;;;;;;3.20;2.28;;;;;;;4.06;100.00;98728.56;4473430;31;20148;-71
2023/04/03 06:54:38;;;;;;;4.35;2.40;;;;;;;3.98;100.00;98717.88;4471350;31;20435;-67
2023/04/03 06:57:05;;;;;;;6.55;3.35;;;;;;;3.93;100.00;98730.28;4469735;31;20156;-67
2023/04/03 06:59:32;;;;;;;3.78;2.28;;;;;;;3.85;100.00;98732.53;4473318;32;20127;-68
2023/04/03 07:02:00;;;;;;;7.28;3.30;;;;;;;3.97;100.00;98734.34;4476740;31;20727;-69
2023/04/03 07:04:29;;;;;;;4.07;2.33;;;;;;;3.93;100.00;98742.41;4470883;32;20080;-67
2023/04/03 07:06:57;;;;;;;5.93;3.12;;;;;;;4.01;100.00;98738.41;4471069;31;20547;-68
2023/04/03 07:09:24;;;;;;;5.05;2.72;;;;;;;4.11;100.00;98735.25;4472720;31;20144;-69
2023/04/03 07:11:51;;;;;;;5.50;2.92;;;;;;;4.07;100.00;98730.25;4470045;31;20108;-68
2023/04/03 07:14:18;;;;;;;5.97;3.10;;;;;;;4.22;100.00;98741.41;4471987;31;20172;-64
2023/04/03 07:16:46;;;;;;;6.53;2.60;;;;;;;4.27;100.00;98743.72;4469861;31;20089;-67
2023/04/03 07:19:13;;;;;;;6.10;2.55;;;;;;;4.55;100.00;98740.16;4472892;31;20105;-70
2023/04/03 07:21:41;;;;;;;3.55;2.25;;;;;;;4.78;100.00;98743.00;4470042;31;20572;-68
2023/04/03 07:24:09;;;;;;;3.60;2.28;;;;;;;4.91;99.48;98745.66;4471039;31;20119;-68
2023/04/03 07:26:41;;;;;;;3.00;2.17;;;;;;;4.96;97.06;98744.37;4472171;31;20110;-67
2023/04/03 07:29:09;;;;;;;3.67;2.10;;;;;;;5.22;95.41;98736.59;4470253;31;20144;-68
2023/04/03 07:31:41;;;;;;;2.60;1.87;;;;;;;5.39;94.12;98740.69;4471351;31;20105;-68
2023/04/03 07:34:08;;;;;;;4.10;1.92;;;;;;;5.49;90.87;98746.88;4469772;31;20168;-68
2023/04/03 07:36:36;;;;;;;2.75;1.77;;;;;;;5.64;91.29;98750.19;4473157;31;20719;-67
2023/04/03 07:39:03;;;;;;;3.25;1.95;;;;;;;5.38;89.83;98749.41;4468684;32;20558;-69
2023/04/03 07:41:30;;;;;;;4.68;1.90;;;;;;;5.69;89.70;98749.88;4469490;32;20172;-67
2023/04/03 07:43:58;;;;;;;2.67;1.83;;;;;;;5.69;88.57;98762.88;4472148;31;20142;-69
2023/04/03 07:46:25;;;;;;;2.33;1.33;;;;;;;5.91;86.65;98756.19;4473590;31;20101;-69
2023/04/03 07:48:53;;;;;;;2.65;1.70;;;;;;;6.11;86.75;98766.03;4469439;31;20144;-69
2023/04/03 07:51:26;;;;;;;3.20;1.65;;;;;;;6.30;84.47;98751.69;4474078;31;20254;-68
2023/04/03 07:53:54;;;;;;;2.60;1.37;;;;;;;6.52;82.05;98754.41;4468140;32;20088;-66
2023/04/03 07:56:21;;;;;;;3.00;1.60;;;;;;;6.40;82.29;98760.50;4473593;31;20446;-67
2023/04/03 07:58:48;;;;;;;1.27;1.02;;;;;;;6.34;81.83;98759.22;4469410;31;20105;-68
2023/04/03 08:01:15;;;;;;;2.33;1.50;;;;;;;6.60;80.90;98763.44;4475784;31;20246;-69
2023/04/03 08:03:43;;;;;;;3.47;1.55;;;;;;;6.60;80.37;98759.09;4473694;32;20088;-69
2023/04/03 08:06:10;;;;;;;2.60;1.58;;;;;;;6.60;80.12;98766.03;4472915;31;20127;-69
2023/04/03 08:08:42;;;;;;;2.30;1.55;;;;;;;6.73;80.38;98764.22;4475320;31;20124;-69
2023/04/03 08:11:10;;;;;;;2.22;1.37;;;;;;;6.79;79.44;98766.37;4468677;31;20092;-69
2023/04/03 08:13:38;;;;;;;1.92;1.45;;;;;;;7.09;77.59;98765.84;4472031;31;20167;-70
2023/04/03 08:16:16;;;;;;;3.30;1.30;;;;;;;6.84;78.45;98761.63;4468534;31;20114;-70
2023/04/03 08:18:44;;;;;;;1.75;1.40;;;;;;;7.19;77.62;98773.81;4472462;31;20144;-69
2023/04/03 08:21:12;;;;;;;2.92;1.50;;;;;;;7.15;76.54;98772.38;4473058;31;20400;-69
2023/04/03 08:23:43;;;;;;;3.67;1.52;;;;;;;7.21;75.10;98778.91;4473205;31;20096;-70
2023/04/03 08:26:16;;;;;;;2.10;0.98;;;;;;;7.20;76.58;98783.28;4468832;31;20105;-69
2023/04/03 08:28:43;;;;;;;2.15;1.27;;;;;;;7.46;73.60;98788.28;4468942;31;20143;-68
2023/04/03 08:31:18;;;;;;;3.62;1.60;;;;;;;7.49;73.12;98787.25;4470949;31;20096;-66
2023/04/03 08:33:46;;;;;;;1.55;1.17;;;;;;;7.26;74.95;98787.22;4470442;31;20088;-68
2023/04/03 08:36:22;;;;;;;1.80;1.33;;;;;;;7.56;74.37;98778.84;4470961;31;20097;-67
2023/04/03 08:38:50;;;;;;;2.42;1.50;;;;;;;7.79;72.72;98779.66;4469766;31;20105;-67
2023/04/03 08:41:32;;;;;;;2.87;1.80;;;;;;;7.90;70.98;98785.81;4466323;31;20112;-67
2023/04/03 08:44:26;;;;;;;2.47;1.60;;;;;;;7.95;71.80;98784.53;4465818;31;20156;-67
2023/04/03 08:47:21;;;;;;;1.45;1.08;;;;;;;8.30;68.93;98778.28;4470617;31;20141;-68
2023/04/03 08:49:59;;;;;;;4.03;1.30;;;;;;;8.03;70.46;98785.72;4471136;32;20504;-67
2023/04/03 08:52:37;;;;;;;2.03;1.12;;;;;;;8.42;70.33;98786.09;4468981;31;20112;-67
2023/04/03 08:55:17;;;;;;;1.50;1.00;;;;;;;8.57;68.66;98795.34;4468660;31;20100;-67
2023/04/03 08:57:45;;;;;;;2.45;1.40;;;;;;;8.21;67.82;98792.06;4469018;31;20842;-67
2023/04/03 09:00:21;;;;;;;2.47;1.40;;;;;;;8.44;67.64;98795.50;4469559;31;20158;-66
2023/04/03 09:02:53;;;;;;;3.40;1.40;;;;;;;8.58;64.58;98789.16;4473640;31;20835;-67
2023/04/03 09:05:47;;;;;;;2.22;1.30;;;;;;;8.60;63.68;98789.87;4466684;32;20486;-67
2023/04/03 09:08:40;;;;;;;1.83;1.20;;;;;;;8.86;64.39;98806.03;4421544;32;20268;-67
2023/04/03 09:11:22;;;;;;;2.53;1.15;;;;;;;8.97;64.48;98791.28;4425166;32;20117;-67
2023/04/03 09:14:18;;;;;;;2.30;1.20;;;;;;;9.24;63.77;98793.38;4428784;32;20165;-67
2023/04/03 09:16:55;;;;;;;1.92;1.10;;;;;;;9.27;62.36;98787.91;4423576;32;20138;-67
2023/04/03 09:19:23;;;;;;;2.53;1.35;;;;;;;9.49;62.04;98791.31;4423838;32;20101;-67
2023/04/03 09:21:50;;;;;;;1.48;1.10;;;;;;;9.39;60.33;98794.69;4426772;32;20117;-67
2023/04/03 09:24:18;;;;;;;1.77;1.50;;;;;;;9.30;60.75;98787.63;4421906;32;20125;-66
2023/04/03 09:27:07;;;;;;;2.45;1.30;;;;;;;9.24;59.59;98788.97;4425450;32;20295;-67
2023/04/03 09:29:40;;;;;;;1.67;1.12;;;;;;;9.16;58.93;98790.56;4412361;32;20157;-67
2023/04/03 09:32:28;;;;;;;2.25;1.20;;;;;;;9.01;59.80;98788.28;4419586;32;20189;-68
2023/04/03 09:35:18;;;;;;;3.25;0.80;;;;;;;9.36;59.56;98787.13;4425899;32;20152;-68
2023/04/03 09:37:59;;;;;;;1.40;1.00;;;;;;;9.30;59.73;98787.63;4394903;32;20200;-69
2023/04/03 09:40:27;;;;;;;2.03;1.10;;;;;;;9.03;59.03;98796.81;4397705;32;20565;-69
2023/04/03 09:42:58;;;;;;;1.67;0.85;;;;;;;8.64;59.74;98796.50;4394811;32;20117;-69
2023/04/03 09:45:29;;;;;;;1.65;0.95;;;;;;;8.53;59.54;98799.16;4409719;32;20212;-69
2023/04/03 09:48:27;;;;;;;1.80;0.93;;;;;;;8.40;59.73;98788.81;4420563;32;20526;-68
2023/04/03 09:50:59;;;;;;;3.28;0.90;;;;;;;8.15;60.99;98798.59;4420213;32;20089;-67
2023/04/03 09:53:33;;;;;;;1.67;1.10;;;;;;;8.42;58.98;98791.31;4424354;32;20180;-68
2023/04/03 09:56:22;;;;;;;1.83;1.00;;;;;;;8.88;59.62;98798.88;4422462;32;20150;-67
2023/04/03 09:59:01;;;;;;;2.17;1.05;;;;;;;9.24;56.37;98788.16;4432957;32;20159;-69
2023/04/03 10:01:52;;;;;;;6.05;1.20;;;;;;;9.75;55.77;98789.94;4432267;32;20133;-67
2023/04/03 10:04:22;;;;;;;1.53;0.97;;;;;;;9.92;54.50;98790.28;4421244;32;20120;-68
2023/04/03 10:06:52;;;;;;;1.70;1.10;;;;;;;10.48;53.95;98784.50;4419751;32;20155;-68
2023/04/03 10:09:20;;;;;;;1.62;1.10;;;;;;;9.91;53.71;98786.00;4415910;32;20161;-69
2023/04/03 10:12:01;;;;;;;1.12;0.70;;;;;;;10.07;52.83;98781.09;4429425;32;20852;-68
2023/04/03 10:14:29;;;;;;;1.58;0.98;;;;;;;10.09;53.38;98783.56;4444567;32;20096;-68
2023/04/03 10:17:37;;;;;;;2.75;0.98;;;;;;;10.03;52.85;98779.69;4477895;31;20131;-69
2023/04/03 10:20:14;;;;;;;1.58;0.93;;;;;;;10.10;55.18;98775.59;4476087;31;20119;-67
2023/04/03 10:22:45;;;;;;;1.58;1.20;;;;;;;10.18;56.38;98780.16;4474792;31;20123;-68
2023/04/03 10:25:13;;;;;;;1.45;0.90;;;;;;;10.08;54.90;98785.38;4478138;31;20542;-68
2023/04/03 10:27:52;;;;;;;1.17;0.93;;;;;;;9.75;54.80;98776.84;4477434;31;20127;-68
2023/04/03 10:30:45;;;;;;;1.00;0.80;;;;;;;9.54;56.11;98784.75;4478279;31;20122;-70
2023/04/03 10:33:27;;;;;;;1.30;0.90;;;;;;;9.47;54.18;98785.41;4482281;31;20092;-69
2023/04/03 10:36:09;;;;;;;1.12;0.70;;;;;;;9.23;54.77;98781.25;4475409;31;20132;-69
2023/04/03 10:39:04;;;;;;;2.00;0.93;;;;;;;9.14;55.42;98782.03;4477003;32;20141;-70
2023/04/03 10:41:44;;;;;;;1.10;0.80;;;;;;;9.30;54.16;98782.41;4476898;31;20133;-70
2023/04/03 10:44:20;;;;;;;2.10;1.20;;;;;;;9.05;56.15;98781.84;4481196;31;20156;-70
2023/04/03 10:46:51;;;;;;;0.98;0.80;;;;;;;8.88;55.73;98777.16;4476634;31;20410;-70
2023/04/03 10:49:27;;;;;;;1.10;1.00;;;;;;;8.75;55.47;98774.75;4476924;31;20128;-70
2023/04/03 10:52:27;;;;;;;1.10;0.80;;;;;;;9.00;55.91;98775.34;4479012;31;20103;-70
2023/04/03 10:55:13;;;;;;;1.00;0.80;;;;;;;8.81;55.07;98771.63;4447835;32;20113;-70
2023/04/03 10:57:42;;;;;;;1.62;0.90;;;;;;;8.99;55.52;98774.53;4445982;32;20498;-70
2023/04/03 11:00:19;;;;;;;3.65;0.70;;;;;;;9.29;55.91;98772.91;4433316;32;20113;-70
2023/04/03 11:03:09;;;;;;;2.12;1.08;;;;;;;9.21;53.47;98767.50;4447585;32;20180;-68
2023/04/03 11:05:41;;;;;;;1.60;0.90;;;;;;;9.04;53.15;98774.97;4443877;32;20158;-68
2023/04/03 11:08:35;;;;;;;1.12;0.70;;;;;;;9.09;53.91;98776.38;4436284;32;20097;-70
2023/04/03 11:11:12;;;;;;;1.52;0.90;;;;;;;8.93;55.27;98772.38;4436422;32;20477;-70
2023/04/03 11:13:56;;;;;;;1.52;0.90;;;;;;;9.05;54.67;98763.56;4447925;32;20172;-70
2023/04/03 11:16:27;;;;;;;1.42;0.88;;;;;;;8.64;53.76;98772.16;4445816;32;20115;-70
2023/04/03 11:19:21;;;;;;;1.50;1.05;;;;;;;8.52;53.79;98772.22;4449205;32;20466;-70
2023/04/03 11:21:56;;;;;;;6.57;2.40;;;;;;;8.62;56.09;98772.28;4456617;32;20691;-70
2023/04/03 11:24:26;;;;;;;6.32;2.40;;;;;;;8.77;54.03;98762.38;4450503;32;20106;-70
2023/04/03 11:26:55;;;;;;;4.37;1.80;;;;;;;8.62;54.67;98771.47;4434203;32;20246;-70
2023/04/03 11:29:26;;;;;;;4.95;2.45;;;;;;;8.68;54.23;98753.50;4428919;32;20120;-70
2023/04/03 11:32:17;;;;;;;1.40;1.10;;;;;;;8.86;54.38;98758.19;4462848;31;20454;-70
2023/04/03 11:34:47;;;;;;;0.77;0.70;;;;;;;8.95;54.25;98756.59;4477903;31;20101;-70
2023/04/03 11:37:28;;;;;;;1.35;0.88;;;;;;;8.73;53.44;98745.28;4479527;31;20475;-70
2023/04/03 11:39:58;;;;;;;0.88;0.70;;;;;;;8.55;53.48;98754.62;4483419;31;20538;-70
2023/04/03 11:42:42;;;;;;;0.98;0.70;;;;;;;8.75;53.21;98745.16;4473756;31;20158;-68
2023/04/03 11:45:21;;;;;;;3.03;0.80;;;;;;;8.70;53.97;98748.16;4473199;31;20496;-69
2023/04/03 11:47:58;;;;;;;2.45;1.77;;;;;;;8.79;53.61;98747.41;4481564;31;20088;-68
2023/04/03 11:50:44;;;;;;;1.73;1.15;;;;;;;8.82;53.85;98747.16;4481017;31;20856;-68
2023/04/03 11:53:12;;;;;;;2.28;1.30;;;;;;;8.98;53.86;98738.88;4483553;31;20660;-69
2023/04/03 11:55:46;;;;;;;1.45;1.00;;;;;;;9.03;54.11;98741.94;4483163;31;20116;-69